sensor_id;sensor_type;location;lat;lon;timestamp;temperature;humidity
57434;DHT22;43277;52.672;6.984;2022-09-21T00:03:34;7.30;99.90
57434;DHT22;43277;52.672;6.984;2022-09-21T00:06:08;7.10;99.90
57434;DHT22;43277;52.672;6.984;2022-09-21T00:08:34;7.00;99.90
57434;DHT22;43277;52.672;6.984;2022-09-21T00:11:00;7.00;99.90
57434;DHT22;43277;52.672;6.984;2022-09-21T00:13:26;7.00;99.90
57434;DHT22;43277;52.672;6.984;2022-09-21T00:15:54;7.00;99.90
57434;DHT22;43277;52.672;6.984;2022-09-21T00:18:20;6.90;99.90
57434;DHT22;43277;52.672;6.984;2022-09-21T00:20:46;6.90;99.90
57434;DHT22;43277;52.672;6.984;2022-09-21T00:23:12;7.00;99.90
57434;DHT22;43277;52.672;6.984;2022-09-21T00:25:37;6.90;99.90
57434;DHT22;43277;52.672;6.984;2022-09-21T00:28:03;6.80;99.90
57434;DHT22;43277;52.672;6.984;2022-09-21T00:30:29;6.80;99.90
57434;DHT22;43277;52.672;6.984;2022-09-21T00:32:55;6.70;99.90
57434;DHT22;43277;52.672;6.984;2022-09-21T00:35:21;6.70;99.90
57434;DHT22;43277;52.672;6.984;2022-09-21T00:37:47;6.70;99.90
57434;DHT22;43277;52.672;6.984;2022-09-21T00:40:12;6.70;99.90
57434;DHT22;43277;52.672;6.984;2022-09-21T00:42:38;6.70;99.90
57434;DHT22;43277;52.672;6.984;2022-09-21T00:45:05;6.60;99.90
57434;DHT22;43277;52.672;6.984;2022-09-21T00:47:39;6.60;99.90
57434;DHT22;43277;52.672;6.984;2022-09-21T00:50:13;6.60;99.90
57434;DHT22;43277;52.672;6.984;2022-09-21T00:52:52;6.60;99.90
57434;DHT22;43277;52.672;6.984;2022-09-21T00:55:40;6.60;99.90
57434;DHT22;43277;52.672;6.984;2022-09-21T00:58:10;6.60;99.90
57434;DHT22;43277;52.672;6.984;2022-09-21T01:00:36;6.60;99.90
57434;DHT22;43277;52.672;6.984;2022-09-21T01:03:03;6.60;99.90
57434;DHT22;43277;52.672;6.984;2022-09-21T01:05:29;6.50;99.90
57434;DHT22;43277;52.672;6.984;2022-09-21T01:07:57;6.50;99.90
57434;DHT22;43277;52.672;6.984;2022-09-21T01:10:24;6.50;99.90
57434;DHT22;43277;52.672;6.984;2022-09-21T01:22:05;6.30;99.90
57434;DHT22;43277;52.672;6.984;2022-09-21T01:27:24;6.20;99.90
57434;DHT22;43277;52.672;6.984;2022-09-21T01:30:06;6.20;99.90
57434;DHT22;43277;52.672;6.984;2022-09-21T01:32:37;6.20;99.90
57434;DHT22;43277;52.672;6.984;2022-09-21T01:35:21;6.20;99.90
57434;DHT22;43277;52.672;6.984;2022-09-21T01:37:56;6.20;99.90
57434;DHT22;43277;52.672;6.984;2022-09-21T01:40:48;6.20;99.90
57434;DHT22;43277;52.672;6.984;2022-09-21T01:43:17;6.10;99.90
57434;DHT22;43277;52.672;6.984;2022-09-21T01:45:48;6.10;99.90
57434;DHT22;43277;52.672;6.984;2022-09-21T01:48:15;6.00;99.90
57434;DHT22;43277;52.672;6.984;2022-09-21T01:50:45;6.00;99.90
57434;DHT22;43277;52.672;6.984;2022-09-21T01:56:00;5.90;99.90
57434;DHT22;43277;52.672;6.984;2022-09-21T01:58:30;6.00;99.90
57434;DHT22;43277;52.672;6.984;2022-09-21T02:00:58;5.90;99.90
57434;DHT22;43277;52.672;6.984;2022-09-21T02:03:44;5.90;99.90
57434;DHT22;43277;52.672;6.984;2022-09-21T02:06:12;5.90;99.90
57434;DHT22;43277;52.672;6.984;2022-09-21T02:08:39;5.90;99.90
57434;DHT22;43277;52.672;6.984;2022-09-21T02:11:05;5.90;99.90
57434;DHT22;43277;52.672;6.984;2022-09-21T02:13:35;5.80;99.90
57434;DHT22;43277;52.672;6.984;2022-09-21T02:18:53;5.80;99.90
57434;DHT22;43277;52.672;6.984;2022-09-21T02:27:55;5.80;99.90
57434;DHT22;43277;52.672;6.984;2022-09-21T02:30:25;5.80;99.90
57434;DHT22;43277;52.672;6.984;2022-09-21T02:33:04;5.70;99.90
57434;DHT22;43277;52.672;6.984;2022-09-21T02:35:45;5.70;99.90
57434;DHT22;43277;52.672;6.984;2022-09-21T02:40:51;5.70;99.90
57434;DHT22;43277;52.672;6.984;2022-09-21T02:43:28;5.70;99.90
57434;DHT22;43277;52.672;6.984;2022-09-21T02:46:00;5.70;99.90
57434;DHT22;43277;52.672;6.984;2022-09-21T02:48:36;5.70;99.90
57434;DHT22;43277;52.672;6.984;2022-09-21T02:51:09;5.70;99.90
57434;DHT22;43277;52.672;6.984;2022-09-21T02:53:37;5.60;99.90
57434;DHT22;43277;52.672;6.984;2022-09-21T02:56:05;5.70;99.90
57434;DHT22;43277;52.672;6.984;2022-09-21T02:58:38;5.60;99.90
57434;DHT22;43277;52.672;6.984;2022-09-21T03:01:05;5.60;99.90
57434;DHT22;43277;52.672;6.984;2022-09-21T03:03:33;5.60;99.90
57434;DHT22;43277;52.672;6.984;2022-09-21T03:05:59;5.60;99.90
57434;DHT22;43277;52.672;6.984;2022-09-21T03:08:25;5.60;99.90
57434;DHT22;43277;52.672;6.984;2022-09-21T03:10:50;5.60;99.90
57434;DHT22;43277;52.672;6.984;2022-09-21T03:13:16;5.60;99.90
57434;DHT22;43277;52.672;6.984;2022-09-21T03:15:43;5.60;99.90
57434;DHT22;43277;52.672;6.984;2022-09-21T03:18:11;5.60;99.90
57434;DHT22;43277;52.672;6.984;2022-09-21T03:20:42;5.60;99.90
57434;DHT22;43277;52.672;6.984;2022-09-21T03:23:12;5.50;99.90
57434;DHT22;43277;52.672;6.984;2022-09-21T03:25:38;5.50;99.90
57434;DHT22;43277;52.672;6.984;2022-09-21T03:28:04;5.50;99.90
57434;DHT22;43277;52.672;6.984;2022-09-21T03:30:30;5.40;99.90
57434;DHT22;43277;52.672;6.984;2022-09-21T03:32:56;5.40;99.90
57434;DHT22;43277;52.672;6.984;2022-09-21T03:35:24;5.40;99.90
57434;DHT22;43277;52.672;6.984;2022-09-21T03:37:52;5.30;99.90
57434;DHT22;43277;52.672;6.984;2022-09-21T03:40:19;5.20;99.90
57434;DHT22;43277;52.672;6.984;2022-09-21T03:42:45;5.20;99.90
57434;DHT22;43277;52.672;6.984;2022-09-21T03:45:11;5.10;99.90
57434;DHT22;43277;52.672;6.984;2022-09-21T03:47:38;5.10;99.90
57434;DHT22;43277;52.672;6.984;2022-09-21T03:50:05;5.10;99.90
57434;DHT22;43277;52.672;6.984;2022-09-21T03:52:31;5.00;99.90
57434;DHT22;43277;52.672;6.984;2022-09-21T03:54:57;5.00;99.90
57434;DHT22;43277;52.672;6.984;2022-09-21T03:57:23;4.90;99.90
57434;DHT22;43277;52.672;6.984;2022-09-21T03:59:48;4.90;99.90
57434;DHT22;43277;52.672;6.984;2022-09-21T04:02:15;4.90;99.90
57434;DHT22;43277;52.672;6.984;2022-09-21T04:04:41;4.90;99.90
57434;DHT22;43277;52.672;6.984;2022-09-21T04:07:07;4.90;99.90
57434;DHT22;43277;52.672;6.984;2022-09-21T04:09:33;4.80;99.90
57434;DHT22;43277;52.672;6.984;2022-09-21T04:11:58;4.80;99.90
57434;DHT22;43277;52.672;6.984;2022-09-21T04:14:24;4.80;99.90
57434;DHT22;43277;52.672;6.984;2022-09-21T04:16:49;4.70;99.90
57434;DHT22;43277;52.672;6.984;2022-09-21T04:19:17;4.70;99.90
57434;DHT22;43277;52.672;6.984;2022-09-21T04:21:42;4.70;99.90
57434;DHT22;43277;52.672;6.984;2022-09-21T04:24:08;4.70;99.90
57434;DHT22;43277;52.672;6.984;2022-09-21T04:26:34;4.70;99.90
57434;DHT22;43277;52.672;6.984;2022-09-21T04:29:00;4.60;99.90
57434;DHT22;43277;52.672;6.984;2022-09-21T04:31:27;4.60;99.90
57434;DHT22;43277;52.672;6.984;2022-09-21T04:33:55;4.60;99.90
57434;DHT22;43277;52.672;6.984;2022-09-21T04:36:22;4.50;99.90
57434;DHT22;43277;52.672;6.984;2022-09-21T04:38:49;4.50;99.90
57434;DHT22;43277;52.672;6.984;2022-09-21T04:41:15;4.50;99.90
57434;DHT22;43277;52.672;6.984;2022-09-21T04:43:42;4.60;99.90
57434;DHT22;43277;52.672;6.984;2022-09-21T04:46:11;4.50;99.90
57434;DHT22;43277;52.672;6.984;2022-09-21T04:48:37;4.50;99.90
57434;DHT22;43277;52.672;6.984;2022-09-21T04:51:03;4.60;99.90
57434;DHT22;43277;52.672;6.984;2022-09-21T04:53:32;4.60;99.90
57434;DHT22;43277;52.672;6.984;2022-09-21T04:55:57;4.50;99.90
57434;DHT22;43277;52.672;6.984;2022-09-21T04:58:23;4.60;99.90
57434;DHT22;43277;52.672;6.984;2022-09-21T05:00:50;4.50;99.90
57434;DHT22;43277;52.672;6.984;2022-09-21T05:03:19;4.40;99.90
57434;DHT22;43277;52.672;6.984;2022-09-21T05:05:48;4.50;99.90
57434;DHT22;43277;52.672;6.984;2022-09-21T05:08:15;4.50;99.90
57434;DHT22;43277;52.672;6.984;2022-09-21T05:10:42;4.40;99.90
57434;DHT22;43277;52.672;6.984;2022-09-21T05:13:08;4.40;99.90
57434;DHT22;43277;52.672;6.984;2022-09-21T05:15:35;4.40;99.90
57434;DHT22;43277;52.672;6.984;2022-09-21T05:18:01;4.30;99.90
57434;DHT22;43277;52.672;6.984;2022-09-21T05:20:26;4.30;99.90
57434;DHT22;43277;52.672;6.984;2022-09-21T05:22:52;4.20;99.90
57434;DHT22;43277;52.672;6.984;2022-09-21T05:25:17;4.20;99.90
57434;DHT22;43277;52.672;6.984;2022-09-21T05:27:43;4.20;99.90
57434;DHT22;43277;52.672;6.984;2022-09-21T05:30:09;4.20;99.90
57434;DHT22;43277;52.672;6.984;2022-09-21T05:32:45;4.20;99.90
57434;DHT22;43277;52.672;6.984;2022-09-21T05:38:16;4.20;99.90
57434;DHT22;43277;52.672;6.984;2022-09-21T05:40:43;4.20;99.90
57434;DHT22;43277;52.672;6.984;2022-09-21T05:43:10;4.30;99.90
57434;DHT22;43277;52.672;6.984;2022-09-21T05:45:45;4.30;99.90
57434;DHT22;43277;52.672;6.984;2022-09-21T05:48:26;4.30;99.90
57434;DHT22;43277;52.672;6.984;2022-09-21T05:51:09;4.30;99.90
57434;DHT22;43277;52.672;6.984;2022-09-21T05:56:32;4.30;99.90
57434;DHT22;43277;52.672;6.984;2022-09-21T06:04:37;4.40;99.90
57434;DHT22;43277;52.672;6.984;2022-09-21T06:07:03;4.40;99.90
57434;DHT22;43277;52.672;6.984;2022-09-21T06:09:28;4.40;99.90
57434;DHT22;43277;52.672;6.984;2022-09-21T06:11:54;4.40;99.90
57434;DHT22;43277;52.672;6.984;2022-09-21T06:14:19;4.40;99.90
57434;DHT22;43277;52.672;6.984;2022-09-21T06:16:50;4.50;99.90
57434;DHT22;43277;52.672;6.984;2022-09-21T06:19:16;4.50;99.90
57434;DHT22;43277;52.672;6.984;2022-09-21T06:21:42;4.60;99.90
57434;DHT22;43277;52.672;6.984;2022-09-21T06:24:08;4.70;99.90
57434;DHT22;43277;52.672;6.984;2022-09-21T06:26:33;4.80;99.90
57434;DHT22;43277;52.672;6.984;2022-09-21T06:28:59;4.90;99.90
57434;DHT22;43277;52.672;6.984;2022-09-21T06:31:26;5.00;99.90
57434;DHT22;43277;52.672;6.984;2022-09-21T06:33:52;5.00;99.90
57434;DHT22;43277;52.672;6.984;2022-09-21T06:36:17;5.10;99.90
57434;DHT22;43277;52.672;6.984;2022-09-21T06:38:43;5.20;99.90
57434;DHT22;43277;52.672;6.984;2022-09-21T06:41:09;5.20;99.90
57434;DHT22;43277;52.672;6.984;2022-09-21T06:43:35;5.30;99.90
57434;DHT22;43277;52.672;6.984;2022-09-21T06:46:01;5.40;99.90
57434;DHT22;43277;52.672;6.984;2022-09-21T06:48:28;5.60;99.90
57434;DHT22;43277;52.672;6.984;2022-09-21T06:50:58;5.70;99.90
57434;DHT22;43277;52.672;6.984;2022-09-21T06:53:25;5.80;99.90
57434;DHT22;43277;52.672;6.984;2022-09-21T06:55:52;5.90;99.90
57434;DHT22;43277;52.672;6.984;2022-09-21T06:58:18;6.10;99.90
57434;DHT22;43277;52.672;6.984;2022-09-21T07:00:44;6.20;99.90
57434;DHT22;43277;52.672;6.984;2022-09-21T07:03:10;6.40;99.90
57434;DHT22;43277;52.672;6.984;2022-09-21T07:05:37;6.60;99.90
57434;DHT22;43277;52.672;6.984;2022-09-21T07:08:02;6.70;99.90
57434;DHT22;43277;52.672;6.984;2022-09-21T07:10:28;6.80;99.90
57434;DHT22;43277;52.672;6.984;2022-09-21T07:12:54;6.90;99.90
57434;DHT22;43277;52.672;6.984;2022-09-21T07:15:19;7.00;99.90
57434;DHT22;43277;52.672;6.984;2022-09-21T07:17:46;7.20;99.90
57434;DHT22;43277;52.672;6.984;2022-09-21T07:20:11;7.40;99.90
57434;DHT22;43277;52.672;6.984;2022-09-21T07:22:37;7.50;99.90
57434;DHT22;43277;52.672;6.984;2022-09-21T07:25:06;7.70;99.90
57434;DHT22;43277;52.672;6.984;2022-09-21T07:27:32;7.80;99.90
57434;DHT22;43277;52.672;6.984;2022-09-21T07:29:58;7.90;99.90
57434;DHT22;43277;52.672;6.984;2022-09-21T07:32:23;8.00;99.90
57434;DHT22;43277;52.672;6.984;2022-09-21T07:34:50;8.20;99.90
57434;DHT22;43277;52.672;6.984;2022-09-21T07:37:18;8.40;99.90
57434;DHT22;43277;52.672;6.984;2022-09-21T07:39:44;8.50;99.90
57434;DHT22;43277;52.672;6.984;2022-09-21T07:42:09;8.60;99.90
57434;DHT22;43277;52.672;6.984;2022-09-21T07:44:35;8.80;99.90
57434;DHT22;43277;52.672;6.984;2022-09-21T07:47:00;8.90;99.90
57434;DHT22;43277;52.672;6.984;2022-09-21T07:49:27;9.10;99.90
57434;DHT22;43277;52.672;6.984;2022-09-21T07:51:53;9.20;99.90
57434;DHT22;43277;52.672;6.984;2022-09-21T07:54:18;9.30;99.90
57434;DHT22;43277;52.672;6.984;2022-09-21T07:56:44;9.60;99.90
57434;DHT22;43277;52.672;6.984;2022-09-21T07:59:30;9.70;99.90
57434;DHT22;43277;52.672;6.984;2022-09-21T08:01:57;9.90;99.90
57434;DHT22;43277;52.672;6.984;2022-09-21T08:04:24;10.10;99.90
57434;DHT22;43277;52.672;6.984;2022-09-21T08:06:49;10.20;99.90
57434;DHT22;43277;52.672;6.984;2022-09-21T08:09:15;10.30;99.90
57434;DHT22;43277;52.672;6.984;2022-09-21T08:11:41;10.40;99.90
57434;DHT22;43277;52.672;6.984;2022-09-21T08:14:09;10.60;99.90
57434;DHT22;43277;52.672;6.984;2022-09-21T08:16:37;10.80;99.90
57434;DHT22;43277;52.672;6.984;2022-09-21T08:19:04;10.90;99.90
57434;DHT22;43277;52.672;6.984;2022-09-21T08:21:30;11.00;99.90
57434;DHT22;43277;52.672;6.984;2022-09-21T08:23:55;11.20;99.90
57434;DHT22;43277;52.672;6.984;2022-09-21T08:26:22;11.30;99.90
57434;DHT22;43277;52.672;6.984;2022-09-21T08:28:51;11.60;99.90
57434;DHT22;43277;52.672;6.984;2022-09-21T08:31:19;11.70;99.90
57434;DHT22;43277;52.672;6.984;2022-09-21T08:33:45;11.80;99.90
57434;DHT22;43277;52.672;6.984;2022-09-21T08:36:11;11.80;99.90
57434;DHT22;43277;52.672;6.984;2022-09-21T08:38:38;12.00;99.90
57434;DHT22;43277;52.672;6.984;2022-09-21T08:41:17;12.20;99.90
57434;DHT22;43277;52.672;6.984;2022-09-21T08:43:58;12.30;99.90
57434;DHT22;43277;52.672;6.984;2022-09-21T08:46:27;12.50;99.90
57434;DHT22;43277;52.672;6.984;2022-09-21T08:51:25;12.90;99.90
57434;DHT22;43277;52.672;6.984;2022-09-21T08:53:56;12.80;99.90
57434;DHT22;43277;52.672;6.984;2022-09-21T08:56:24;12.90;99.90
57434;DHT22;43277;52.672;6.984;2022-09-21T08:58:50;13.10;99.90
57434;DHT22;43277;52.672;6.984;2022-09-21T09:17:37;14.40;99.90
57434;DHT22;43277;52.672;6.984;2022-09-21T09:20:18;14.60;99.90
57434;DHT22;43277;52.672;6.984;2022-09-21T09:22:52;14.80;99.90
57434;DHT22;43277;52.672;6.984;2022-09-21T09:25:23;14.80;99.90
57434;DHT22;43277;52.672;6.984;2022-09-21T09:27:58;14.90;99.90
57434;DHT22;43277;52.672;6.984;2022-09-21T09:30:28;15.00;99.90
57434;DHT22;43277;52.672;6.984;2022-09-21T09:35:49;15.30;99.90
57434;DHT22;43277;52.672;6.984;2022-09-21T09:38:28;15.60;99.90
57434;DHT22;43277;52.672;6.984;2022-09-21T09:49:12;16.30;99.90
57434;DHT22;43277;52.672;6.984;2022-09-21T09:51:38;16.40;99.90
57434;DHT22;43277;52.672;6.984;2022-09-21T09:54:07;16.50;99.90
57434;DHT22;43277;52.672;6.984;2022-09-21T09:56:37;16.60;99.90
57434;DHT22;43277;52.672;6.984;2022-09-21T09:59:05;16.60;99.90
57434;DHT22;43277;52.672;6.984;2022-09-21T10:01:43;16.70;99.90
57434;DHT22;43277;52.672;6.984;2022-09-21T10:04:15;16.80;98.80
57434;DHT22;43277;52.672;6.984;2022-09-21T10:06:42;17.00;97.70
57434;DHT22;43277;52.672;6.984;2022-09-21T10:09:30;16.80;99.90
57434;DHT22;43277;52.672;6.984;2022-09-21T10:12:14;17.00;99.90
57434;DHT22;43277;52.672;6.984;2022-09-21T10:14:51;17.10;99.90
57434;DHT22;43277;52.672;6.984;2022-09-21T10:17:18;17.30;99.90
57434;DHT22;43277;52.672;6.984;2022-09-21T10:19:44;17.50;99.90
57434;DHT22;43277;52.672;6.984;2022-09-21T10:22:18;17.80;99.90
57434;DHT22;43277;52.672;6.984;2022-09-21T10:24:52;18.10;99.90
57434;DHT22;43277;52.672;6.984;2022-09-21T10:27:32;18.30;97.40
57434;DHT22;43277;52.672;6.984;2022-09-21T10:29:58;18.40;99.30
57434;DHT22;43277;52.672;6.984;2022-09-21T10:32:28;18.60;99.30
57434;DHT22;43277;52.672;6.984;2022-09-21T10:37:41;19.10;97.90
57434;DHT22;43277;52.672;6.984;2022-09-21T10:42:42;19.40;95.00
57434;DHT22;43277;52.672;6.984;2022-09-21T10:50:39;19.60;93.70
57434;DHT22;43277;52.672;6.984;2022-09-21T10:55:37;19.50;90.30
57434;DHT22;43277;52.672;6.984;2022-09-21T10:58:11;19.50;94.50
57434;DHT22;43277;52.672;6.984;2022-09-21T11:00:43;19.80;94.70
57434;DHT22;43277;52.672;6.984;2022-09-21T11:08:43;20.20;93.40
57434;DHT22;43277;52.672;6.984;2022-09-21T11:14:18;20.40;92.90
57434;DHT22;43277;52.672;6.984;2022-09-21T11:16:57;20.70;94.10
57434;DHT22;43277;52.672;6.984;2022-09-21T11:19:35;21.00;93.60
57434;DHT22;43277;52.672;6.984;2022-09-21T11:25:03;21.40;90.00
57434;DHT22;43277;52.672;6.984;2022-09-21T11:27:39;21.50;91.20
57434;DHT22;43277;52.672;6.984;2022-09-21T11:30:10;21.50;89.60
57434;DHT22;43277;52.672;6.984;2022-09-21T11:38:38;21.90;85.20
57434;DHT22;43277;52.672;6.984;2022-09-21T11:41:21;22.10;86.70
57434;DHT22;43277;52.672;6.984;2022-09-21T11:46:53;22.50;83.00
57434;DHT22;43277;52.672;6.984;2022-09-21T11:55:27;22.70;80.90
57434;DHT22;43277;52.672;6.984;2022-09-21T11:58:26;22.90;77.00
57434;DHT22;43277;52.672;6.984;2022-09-21T12:12:16;23.30;77.30
57434;DHT22;43277;52.672;6.984;2022-09-21T12:15:01;23.30;73.60
57434;DHT22;43277;52.672;6.984;2022-09-21T12:22:57;22.60;75.20
57434;DHT22;43277;52.672;6.984;2022-09-21T12:25:35;22.60;77.60
57434;DHT22;43277;52.672;6.984;2022-09-21T12:28:17;22.60;78.70
57434;DHT22;43277;52.672;6.984;2022-09-21T12:30:48;22.60;78.30
57434;DHT22;43277;52.672;6.984;2022-09-21T12:33:20;22.60;76.40
57434;DHT22;43277;52.672;6.984;2022-09-21T12:35:57;22.50;76.50
57434;DHT22;43277;52.672;6.984;2022-09-21T12:38:40;22.40;76.60
57434;DHT22;43277;52.672;6.984;2022-09-21T12:41:41;22.50;77.10
57434;DHT22;43277;52.672;6.984;2022-09-21T12:44:31;22.50;76.10
57434;DHT22;43277;52.672;6.984;2022-09-21T12:47:05;22.40;78.70
57434;DHT22;43277;52.672;6.984;2022-09-21T12:49:44;22.40;77.00
57434;DHT22;43277;52.672;6.984;2022-09-21T12:52:16;22.40;76.20
57434;DHT22;43277;52.672;6.984;2022-09-21T12:54:52;22.40;75.70
57434;DHT22;43277;52.672;6.984;2022-09-21T13:00:18;22.20;73.10
57434;DHT22;43277;52.672;6.984;2022-09-21T13:02:53;22.00;73.30
57434;DHT22;43277;52.672;6.984;2022-09-21T13:08:44;21.60;77.10
57434;DHT22;43277;52.672;6.984;2022-09-21T13:11:11;21.20;77.80
57434;DHT22;43277;52.672;6.984;2022-09-21T13:13:43;20.80;80.20
57434;DHT22;43277;52.672;6.984;2022-09-21T13:16:37;20.40;82.10
57434;DHT22;43277;52.672;6.984;2022-09-21T13:19:16;20.00;77.70
57434;DHT22;43277;52.672;6.984;2022-09-21T13:21:43;19.70;73.80
57434;DHT22;43277;52.672;6.984;2022-09-21T13:24:29;19.40;83.20
57434;DHT22;43277;52.672;6.984;2022-09-21T13:26:57;19.00;88.60
57434;DHT22;43277;52.672;6.984;2022-09-21T13:29:31;18.70;90.40
57434;DHT22;43277;52.672;6.984;2022-09-21T13:31:58;18.40;91.80
57434;DHT22;43277;52.672;6.984;2022-09-21T13:34:33;18.20;92.30
57434;DHT22;43277;52.672;6.984;2022-09-21T13:42:44;18.80;91.50
57434;DHT22;43277;52.672;6.984;2022-09-21T13:47:40;19.90;83.00
57434;DHT22;43277;52.672;6.984;2022-09-21T13:52:47;21.60;82.40
57434;DHT22;43277;52.672;6.984;2022-09-21T13:55:28;23.00;74.90
57434;DHT22;43277;52.672;6.984;2022-09-21T13:57:56;24.20;63.00
57434;DHT22;43277;52.672;6.984;2022-09-21T14:00:42;25.00;57.30
57434;DHT22;43277;52.672;6.984;2022-09-21T14:05:50;26.40;59.30
57434;DHT22;43277;52.672;6.984;2022-09-21T14:13:45;28.60;54.20
57434;DHT22;43277;52.672;6.984;2022-09-21T14:18:59;28.80;47.90
57434;DHT22;43277;52.672;6.984;2022-09-21T14:21:25;29.20;41.90
57434;DHT22;43277;52.672;6.984;2022-09-21T14:29:30;28.60;40.50
57434;DHT22;43277;52.672;6.984;2022-09-21T14:31:59;28.60;38.10
57434;DHT22;43277;52.672;6.984;2022-09-21T14:34:33;28.50;39.20
57434;DHT22;43277;52.672;6.984;2022-09-21T14:37:04;28.50;39.70
57434;DHT22;43277;52.672;6.984;2022-09-21T14:39:39;28.60;37.90
57434;DHT22;43277;52.672;6.984;2022-09-21T14:42:10;28.50;39.90
57434;DHT22;43277;52.672;6.984;2022-09-21T14:44:41;28.60;39.50
57434;DHT22;43277;52.672;6.984;2022-09-21T14:55:32;26.70;40.60
57434;DHT22;43277;52.672;6.984;2022-09-21T15:00:52;26.80;40.60
57434;DHT22;43277;52.672;6.984;2022-09-21T15:13:07;28.80;38.60
57434;DHT22;43277;52.672;6.984;2022-09-21T15:15:30;29.10;37.70
57434;DHT22;43277;52.672;6.984;2022-09-21T15:17:59;29.30;37.80
57434;DHT22;43277;52.672;6.984;2022-09-21T15:20:28;29.50;36.10
57434;DHT22;43277;52.672;6.984;2022-09-21T15:22:58;29.70;36.20
57434;DHT22;43277;52.672;6.984;2022-09-21T15:25:26;29.90;35.70
57434;DHT22;43277;52.672;6.984;2022-09-21T15:27:53;29.90;37.40
57434;DHT22;43277;52.672;6.984;2022-09-21T15:30:24;30.20;37.30
57434;DHT22;43277;52.672;6.984;2022-09-21T15:32:56;30.40;35.90
57434;DHT22;43277;52.672;6.984;2022-09-21T15:35:30;30.10;35.20
57434;DHT22;43277;52.672;6.984;2022-09-21T15:37:57;30.20;36.10
57434;DHT22;43277;52.672;6.984;2022-09-21T15:40:28;29.80;39.70
57434;DHT22;43277;52.672;6.984;2022-09-21T15:43:13;30.00;39.40
57434;DHT22;43277;52.672;6.984;2022-09-21T15:46:04;29.90;40.60
57434;DHT22;43277;52.672;6.984;2022-09-21T15:48:39;29.90;40.10
57434;DHT22;43277;52.672;6.984;2022-09-21T15:57:33;29.30;40.80
57434;DHT22;43277;52.672;6.984;2022-09-21T16:00:16;28.70;40.20
57434;DHT22;43277;52.672;6.984;2022-09-21T16:08:33;26.90;41.10
57434;DHT22;43277;52.672;6.984;2022-09-21T16:14:03;27.40;43.70
57434;DHT22;43277;52.672;6.984;2022-09-21T16:17:06;27.50;43.60
57434;DHT22;43277;52.672;6.984;2022-09-21T16:22:24;27.30;44.60
57434;DHT22;43277;52.672;6.984;2022-09-21T16:24:51;27.30;44.70
57434;DHT22;43277;52.672;6.984;2022-09-21T16:27:21;27.30;44.90
57434;DHT22;43277;52.672;6.984;2022-09-21T16:29:48;27.20;45.30
57434;DHT22;43277;52.672;6.984;2022-09-21T16:34:47;26.30;46.20
57434;DHT22;43277;52.672;6.984;2022-09-21T16:39:45;24.00;50.10
57434;DHT22;43277;52.672;6.984;2022-09-21T16:42:11;23.00;53.20
57434;DHT22;43277;52.672;6.984;2022-09-21T16:44:38;22.00;55.60
57434;DHT22;43277;52.672;6.984;2022-09-21T16:47:14;21.10;58.40
57434;DHT22;43277;52.672;6.984;2022-09-21T16:49:41;20.50;60.40
57434;DHT22;43277;52.672;6.984;2022-09-21T16:52:07;19.90;64.70
57434;DHT22;43277;52.672;6.984;2022-09-21T16:54:33;19.40;68.80
57434;DHT22;43277;52.672;6.984;2022-09-21T16:57:04;18.90;72.40
57434;DHT22;43277;52.672;6.984;2022-09-21T16:59:31;18.50;78.90
57434;DHT22;43277;52.672;6.984;2022-09-21T17:01:58;18.20;84.50
57434;DHT22;43277;52.672;6.984;2022-09-21T17:04:29;18.00;89.20
57434;DHT22;43277;52.672;6.984;2022-09-21T17:06:55;17.70;90.30
57434;DHT22;43277;52.672;6.984;2022-09-21T17:09:27;17.40;89.30
57434;DHT22;43277;52.672;6.984;2022-09-21T17:11:56;17.20;90.70
57434;DHT22;43277;52.672;6.984;2022-09-21T17:14:29;16.90;90.10
57434;DHT22;43277;52.672;6.984;2022-09-21T17:17:04;16.70;91.50
57434;DHT22;43277;52.672;6.984;2022-09-21T17:19:33;16.60;92.40
57434;DHT22;43277;52.672;6.984;2022-09-21T17:22:01;16.40;93.00
57434;DHT22;43277;52.672;6.984;2022-09-21T17:24:27;16.20;93.50
57434;DHT22;43277;52.672;6.984;2022-09-21T17:26:52;16.00;96.30
57434;DHT22;43277;52.672;6.984;2022-09-21T17:29:26;15.80;97.10
57434;DHT22;43277;52.672;6.984;2022-09-21T17:31:54;15.70;98.00
57434;DHT22;43277;52.672;6.984;2022-09-21T17:34:25;15.40;98.90
57434;DHT22;43277;52.672;6.984;2022-09-21T17:36:51;15.30;98.90
57434;DHT22;43277;52.672;6.984;2022-09-21T17:39:18;15.10;98.80
57434;DHT22;43277;52.672;6.984;2022-09-21T17:42:17;15.00;99.00
57434;DHT22;43277;52.672;6.984;2022-09-21T17:47:22;14.60;99.80
57434;DHT22;43277;52.672;6.984;2022-09-21T17:49:50;14.50;99.90
57434;DHT22;43277;52.672;6.984;2022-09-21T17:52:18;14.40;99.90
57434;DHT22;43277;52.672;6.984;2022-09-21T17:55:04;14.40;99.90
57434;DHT22;43277;52.672;6.984;2022-09-21T17:57:56;14.20;99.90
57434;DHT22;43277;52.672;6.984;2022-09-21T18:00:31;14.10;99.90
57434;DHT22;43277;52.672;6.984;2022-09-21T18:02:58;14.00;99.90
57434;DHT22;43277;52.672;6.984;2022-09-21T18:05:26;13.90;99.90
57434;DHT22;43277;52.672;6.984;2022-09-21T18:07:52;13.80;99.90
57434;DHT22;43277;52.672;6.984;2022-09-21T18:10:19;13.70;99.90
57434;DHT22;43277;52.672;6.984;2022-09-21T18:13:43;13.50;99.90
57434;DHT22;43277;52.672;6.984;2022-09-21T18:16:28;13.40;99.90
57434;DHT22;43277;52.672;6.984;2022-09-21T18:19:39;13.20;99.90
57434;DHT22;43277;52.672;6.984;2022-09-21T18:22:12;13.10;99.90
57434;DHT22;43277;52.672;6.984;2022-09-21T18:24:39;13.00;99.90
57434;DHT22;43277;52.672;6.984;2022-09-21T18:27:06;12.80;99.90
57434;DHT22;43277;52.672;6.984;2022-09-21T18:29:33;12.70;99.90
57434;DHT22;43277;52.672;6.984;2022-09-21T18:35:03;12.50;99.90
57434;DHT22;43277;52.672;6.984;2022-09-21T18:38:08;12.40;99.90
57434;DHT22;43277;52.672;6.984;2022-09-21T18:46:02;12.20;99.90
57434;DHT22;43277;52.672;6.984;2022-09-21T18:51:18;12.00;99.90
57434;DHT22;43277;52.672;6.984;2022-09-21T18:53:50;11.90;99.90
57434;DHT22;43277;52.672;6.984;2022-09-21T18:56:25;11.90;99.90
57434;DHT22;43277;52.672;6.984;2022-09-21T18:58:51;11.80;99.90
57434;DHT22;43277;52.672;6.984;2022-09-21T19:01:18;11.70;99.90
57434;DHT22;43277;52.672;6.984;2022-09-21T19:03:47;11.70;99.90
57434;DHT22;43277;52.672;6.984;2022-09-21T19:06:45;11.60;99.90
57434;DHT22;43277;52.672;6.984;2022-09-21T19:20:21;11.30;99.90
57434;DHT22;43277;52.672;6.984;2022-09-21T19:22:46;11.30;99.90
57434;DHT22;43277;52.672;6.984;2022-09-21T19:25:38;11.10;99.90
57434;DHT22;43277;52.672;6.984;2022-09-21T19:28:32;11.00;99.90
57434;DHT22;43277;52.672;6.984;2022-09-21T19:31:13;11.00;99.90
57434;DHT22;43277;52.672;6.984;2022-09-21T19:33:39;10.90;99.90
57434;DHT22;43277;52.672;6.984;2022-09-21T19:36:07;10.80;99.90
57434;DHT22;43277;52.672;6.984;2022-09-21T19:38:33;10.70;99.90
57434;DHT22;43277;52.672;6.984;2022-09-21T19:41:04;10.70;99.90
57434;DHT22;43277;52.672;6.984;2022-09-21T19:49:17;10.50;99.90
57434;DHT22;43277;52.672;6.984;2022-09-21T19:51:47;10.50;99.90
57434;DHT22;43277;52.672;6.984;2022-09-21T19:54:20;10.40;99.90